createdAt,value
2022-12-22T00:01:05.121Z,0.40
2022-12-22T00:06:28.534Z,0.30
2022-12-22T00:11:49.757Z,0.33
2022-12-22T00:17:12.501Z,0.43
2022-12-22T00:22:37.557Z,0.30
2022-12-22T00:27:58.954Z,0.43
2022-12-22T00:33:24.256Z,0.40
2022-12-22T00:38:47.576Z,1.20
2022-12-22T00:44:08.924Z,1.53
2022-12-22T00:49:31.690Z,0.30
2022-12-22T00:54:52.667Z,0.30
2022-12-22T01:00:14.649Z,0.30
2022-12-22T01:05:37.076Z,0.30
2022-12-22T01:10:58.342Z,0.40
2022-12-22T01:16:20.009Z,0.30
2022-12-22T01:21:42.899Z,0.30
2022-12-22T01:27:03.934Z,0.30
2022-12-22T01:32:25.523Z,0.30
2022-12-22T01:37:48.278Z,0.40
2022-12-22T01:43:09.217Z,0.30
2022-12-22T01:48:32.802Z,0.50
2022-12-22T01:53:55.310Z,0.37
2022-12-22T01:59:20.755Z,0.30
2022-12-22T02:04:45.196Z,0.20
2022-12-22T02:10:16.422Z,0.30
2022-12-22T02:15:44.513Z,0.43
2022-12-22T02:21:09.242Z,0.30
2022-12-22T02:26:45.930Z,0.20
2022-12-22T02:32:07.187Z,0.20
2022-12-22T02:37:36.151Z,0.40
2022-12-22T02:43:08.027Z,0.10
2022-12-22T02:48:34.624Z,0.20
2022-12-22T02:53:57.445Z,0.10
2022-12-22T02:59:19.894Z,0.20
2022-12-22T03:04:41.182Z,0.50
2022-12-22T03:10:02.145Z,0.20
2022-12-22T03:15:25.535Z,0.20
2022-12-22T03:20:46.428Z,0.30
2022-12-22T03:25:53.909Z,0.30
2022-12-22T03:31:01.123Z,0.20
2022-12-22T03:36:06.398Z,0.30
2022-12-22T03:41:30.022Z,0.20
2022-12-22T03:46:35.014Z,0.43
2022-12-22T03:51:40.603Z,0.20
2022-12-22T03:56:44.301Z,0.17
2022-12-22T04:01:51.826Z,0.10
2022-12-22T04:06:55.702Z,0.10
2022-12-22T04:12:16.569Z,0.20
2022-12-22T04:17:21.989Z,0.10
2022-12-22T04:22:25.603Z,0.23
2022-12-22T04:27:29.233Z,0.10
2022-12-22T04:32:35.220Z,0.50
2022-12-22T04:37:38.968Z,0.20
2022-12-22T04:42:43.884Z,0.20
2022-12-22T04:47:49.436Z,0.20
2022-12-22T04:52:53.314Z,0.10
2022-12-22T04:57:56.918Z,0.10
2022-12-22T05:03:01.963Z,0.13
2022-12-22T05:08:06.116Z,0.20
2022-12-22T05:13:09.777Z,0.10
2022-12-22T05:18:14.805Z,0.30
2022-12-22T05:23:18.447Z,0.20
2022-12-22T05:28:22.690Z,0.10
2022-12-22T05:33:27.741Z,0.10
2022-12-22T05:38:31.635Z,0.10
2022-12-22T05:43:35.634Z,0.10
2022-12-22T05:48:40.906Z,0.10
2022-12-22T05:53:44.996Z,0.27
2022-12-22T05:58:48.821Z,0.13
2022-12-22T06:03:59.763Z,0.03
2022-12-22T06:09:04.335Z,0.10
2022-12-22T06:14:07.948Z,0.10
2022-12-22T06:19:12.879Z,0.20
2022-12-22T06:24:16.513Z,0.10
2022-12-22T06:29:20.296Z,0.13
2022-12-22T06:34:25.316Z,0.20
2022-12-22T06:39:28.926Z,0.17
2022-12-22T06:44:32.534Z,0.33
2022-12-22T06:49:37.455Z,0.20
2022-12-22T06:54:41.527Z,0.30
2022-12-22T06:59:45.120Z,0.30
2022-12-22T07:04:50.124Z,1.07
2022-12-22T07:09:55.367Z,0.20
2022-12-22T07:14:58.931Z,0.27
2022-12-22T07:20:03.971Z,0.33
2022-12-22T07:25:08.835Z,0.67
2022-12-22T07:30:13.842Z,0.50
2022-12-22T07:35:18.875Z,0.60
2022-12-22T07:40:22.503Z,0.40
2022-12-22T07:45:26.335Z,0.70
2022-12-22T07:50:32.848Z,0.80
2022-12-22T07:55:38.005Z,0.77
2022-12-22T08:00:41.551Z,0.70
2022-12-22T08:05:46.616Z,2.63
2022-12-22T08:10:50.383Z,2.73
2022-12-22T08:15:53.984Z,0.60
2022-12-22T08:20:58.965Z,0.60
2022-12-22T08:26:09.004Z,0.57
2022-12-22T08:31:12.803Z,0.57
2022-12-22T08:36:18.241Z,0.97
2022-12-22T08:41:42.241Z,0.60
2022-12-22T08:46:45.914Z,0.73
2022-12-22T08:51:51.591Z,0.90
2022-12-22T08:56:55.563Z,0.77
2022-12-22T09:02:04.839Z,0.70
2022-12-22T09:07:11.044Z,1.60
2022-12-22T09:12:14.736Z,1.57
2022-12-22T09:17:18.346Z,1.50
2022-12-22T09:22:28.108Z,1.63
2022-12-22T09:27:32.463Z,1.60
2022-12-22T09:32:36.000Z,1.30
2022-12-22T09:37:40.896Z,1.60
2022-12-22T09:42:44.624Z,2.80
2022-12-22T09:47:53.529Z,2.57
2022-12-22T09:53:01.155Z,2.50
2022-12-22T09:58:05.198Z,3.30
2022-12-22T10:03:15.582Z,3.03
2022-12-22T10:08:28.424Z,2.53
2022-12-22T10:13:31.993Z,3.07
2022-12-22T10:18:35.577Z,2.40
2022-12-22T10:23:44.184Z,3.30
2022-12-22T10:28:51.473Z,2.40
2022-12-22T10:33:56.655Z,3.27
2022-12-22T10:39:03.909Z,2.63
2022-12-22T10:44:10.783Z,2.30
2022-12-22T10:49:19.750Z,3.23
2022-12-22T10:54:32.600Z,3.40
2022-12-22T10:59:49.621Z,2.90
2022-12-22T11:04:53.894Z,4.20
2022-12-22T11:09:59.262Z,4.80
2022-12-22T11:15:10.006Z,4.43
2022-12-22T11:20:33.833Z,3.20
2022-12-22T11:25:47.788Z,3.23
2022-12-22T11:30:58.944Z,2.70
2022-12-22T11:36:04.941Z,3.23
2022-12-22T11:41:24.723Z,2.60
2022-12-22T11:46:33.807Z,2.70
2022-12-22T11:51:51.987Z,2.10
2022-12-22T11:57:03.678Z,1.63
2022-12-22T12:02:27.428Z,2.13
2022-12-22T12:07:36.467Z,2.57
2022-12-22T12:12:50.714Z,2.40
2022-12-22T12:18:32.371Z,1.57
2022-12-22T12:23:52.497Z,2.10
2022-12-22T12:29:08.414Z,1.63
2022-12-22T12:34:15.586Z,1.70
2022-12-22T12:39:26.333Z,1.50
2022-12-22T12:44:35.515Z,1.50
2022-12-22T12:50:13.531Z,1.60
2022-12-22T12:55:31.561Z,2.00
2022-12-22T13:00:49.815Z,1.80
2022-12-22T13:05:58.171Z,2.50
2022-12-22T13:12:10.665Z,1.97
2022-12-22T13:17:41.178Z,1.63
2022-12-22T13:22:45.369Z,1.97
2022-12-22T13:27:50.103Z,1.50
2022-12-22T13:32:57.955Z,2.87
2022-12-22T13:38:01.929Z,1.00
2022-12-22T13:43:11.233Z,0.80
2022-12-22T13:48:19.670Z,0.80
2022-12-22T13:59:00.707Z,1.23
2022-12-22T14:04:07.868Z,1.13
2022-12-22T14:09:18.087Z,1.47
2022-12-22T14:14:28.299Z,1.03
2022-12-22T14:19:36.031Z,1.30
2022-12-22T14:24:45.606Z,1.07
2022-12-22T14:29:49.319Z,0.80
2022-12-22T14:34:55.531Z,0.93
2022-12-22T14:39:59.243Z,1.37
2022-12-22T14:45:02.881Z,0.70
2022-12-22T14:50:19.303Z,0.90
2022-12-22T14:55:27.588Z,0.80
2022-12-22T15:00:34.321Z,1.57
2022-12-22T15:05:42.092Z,0.90
2022-12-22T15:10:46.082Z,0.90
2022-12-22T15:15:51.140Z,1.10
2022-12-22T15:20:58.017Z,0.97
2022-12-22T15:26:01.616Z,1.43
2022-12-22T15:31:12.916Z,1.40
2022-12-22T15:36:18.010Z,1.40
2022-12-22T15:41:21.600Z,2.20
2022-12-22T15:46:25.447Z,2.07
2022-12-22T15:51:32.243Z,2.10
2022-12-22T15:56:36.589Z,2.77
2022-12-22T16:01:40.199Z,3.13
2022-12-22T16:06:46.156Z,4.67
2022-12-22T16:11:49.920Z,3.33
2022-12-22T16:16:53.685Z,2.97
2022-12-22T16:21:58.826Z,4.63
2022-12-22T16:27:03.070Z,3.13
2022-12-22T16:32:18.246Z,3.93
2022-12-22T16:37:23.406Z,3.30
2022-12-22T16:47:50.325Z,3.20
2022-12-22T16:52:55.306Z,2.83
2022-12-22T16:57:59.373Z,2.87
2022-12-22T17:03:07.883Z,4.00
2022-12-22T17:08:22.149Z,3.53
2022-12-22T17:13:26.197Z,2.40
2022-12-22T17:18:31.673Z,2.17
2022-12-22T17:23:40.494Z,1.87
2022-12-22T17:28:45.340Z,2.33
2022-12-22T17:33:49.409Z,5.03
2022-12-22T17:38:55.410Z,5.67
2022-12-22T17:43:59.028Z,2.90
2022-12-22T17:49:02.674Z,2.57
2022-12-22T17:54:14.412Z,3.20
2022-12-22T17:59:18.504Z,1.93
2022-12-22T18:04:22.325Z,3.33
2022-12-22T18:09:27.674Z,3.80
2022-12-22T18:14:31.355Z,2.77
2022-12-22T18:19:34.929Z,1.80
2022-12-22T18:24:40.868Z,2.90
2022-12-22T18:29:45.068Z,1.67
2022-12-22T18:34:48.621Z,3.00
2022-12-22T18:39:53.618Z,1.27
2022-12-22T18:44:57.205Z,1.20
2022-12-22T18:50:02.859Z,1.43
2022-12-22T18:55:17.235Z,1.30
2022-12-22T19:00:23.185Z,2.07
2022-12-22T19:05:28.704Z,2.47
2022-12-22T19:10:38.305Z,1.83
2022-12-22T19:15:42.966Z,1.00
2022-12-22T19:20:47.214Z,1.67
2022-12-22T19:25:54.790Z,3.10
2022-12-22T19:30:58.623Z,1.60
2022-12-22T19:36:02.229Z,1.20
2022-12-22T19:41:08.620Z,2.70
2022-12-22T19:46:12.396Z,2.00
2022-12-22T19:51:18.002Z,1.97
2022-12-22T19:56:26.080Z,2.40
2022-12-22T20:01:29.785Z,2.30
2022-12-22T20:06:33.444Z,1.63
2022-12-22T20:11:42.372Z,4.20
2022-12-22T20:16:46.315Z,2.50
2022-12-22T20:21:50.027Z,2.03
2022-12-22T20:26:55.092Z,1.60
2022-12-22T20:31:58.692Z,2.43
2022-12-22T20:37:02.353Z,1.63
2022-12-22T20:42:07.312Z,1.00
2022-12-22T20:47:18.664Z,1.90
2022-12-22T20:52:25.565Z,1.30
2022-12-22T20:57:30.633Z,2.23
2022-12-22T21:02:34.445Z,2.00
2022-12-22T21:07:38.150Z,2.03
2022-12-22T21:12:43.303Z,1.83
2022-12-22T21:17:50.224Z,1.30
2022-12-22T21:22:57.946Z,1.80
2022-12-22T21:28:03.526Z,2.20
2022-12-22T21:33:07.107Z,2.07
2022-12-22T21:38:17.668Z,1.30
2022-12-22T21:43:22.627Z,1.40
2022-12-22T21:48:26.384Z,2.23
2022-12-22T21:53:29.933Z,1.13
2022-12-22T21:58:34.908Z,1.03
2022-12-22T22:03:38.622Z,1.60
2022-12-22T22:08:42.246Z,1.67
2022-12-22T22:13:47.644Z,1.80
2022-12-22T22:18:51.640Z,2.50
2022-12-22T22:23:55.201Z,1.10
2022-12-22T22:29:00.155Z,1.10
2022-12-22T22:34:03.858Z,0.63
2022-12-22T22:39:07.428Z,1.03
2022-12-22T22:44:12.458Z,0.93
2022-12-22T22:49:16.045Z,1.23
2022-12-22T22:54:19.577Z,1.20
2022-12-22T22:59:24.556Z,1.27
2022-12-22T23:04:28.260Z,1.07
2022-12-22T23:09:31.907Z,0.63
2022-12-22T23:14:36.907Z,0.80
2022-12-22T23:19:40.599Z,1.13
2022-12-22T23:24:44.217Z,0.67
2022-12-22T23:29:49.173Z,0.60
2022-12-22T23:34:53.626Z,0.80
2022-12-22T23:40:10.771Z,2.00
2022-12-22T23:45:22.182Z,1.27
2022-12-22T23:50:26.938Z,1.23
2022-12-22T23:55:30.543Z,1.70
